sensor_id;sensor_type;location;lat;lon;timestamp;P1;durP1;ratioP1;P2;durP2;ratioP2
27163;SDS011;14685;50.618;7.024;2022-08-18T00:01:30;14.63;;;13.20;;
27163;SDS011;14685;50.618;7.024;2022-08-18T00:03:58;13.63;;;12.43;;
27163;SDS011;14685;50.618;7.024;2022-08-18T00:06:33;11.90;;;10.77;;
27163;SDS011;14685;50.618;7.024;2022-08-18T00:09:06;13.02;;;11.82;;
27163;SDS011;14685;50.618;7.024;2022-08-18T00:11:36;13.27;;;11.95;;
27163;SDS011;14685;50.618;7.024;2022-08-18T00:14:08;12.95;;;11.73;;
27163;SDS011;14685;50.618;7.024;2022-08-18T00:16:48;13.27;;;12.07;;
27163;SDS011;14685;50.618;7.024;2022-08-18T00:19:17;13.43;;;12.13;;
27163;SDS011;14685;50.618;7.024;2022-08-18T00:21:45;12.48;;;11.27;;
27163;SDS011;14685;50.618;7.024;2022-08-18T00:24:11;13.50;;;12.20;;
27163;SDS011;14685;50.618;7.024;2022-08-18T00:26:38;13.57;;;12.18;;
27163;SDS011;14685;50.618;7.024;2022-08-18T00:29:06;12.77;;;11.50;;
27163;SDS011;14685;50.618;7.024;2022-08-18T00:31:32;12.50;;;11.30;;
27163;SDS011;14685;50.618;7.024;2022-08-18T00:33:59;12.30;;;11.13;;
27163;SDS011;14685;50.618;7.024;2022-08-18T00:36:26;12.25;;;11.10;;
27163;SDS011;14685;50.618;7.024;2022-08-18T00:38:54;13.35;;;12.00;;
27163;SDS011;14685;50.618;7.024;2022-08-18T00:41:20;13.65;;;11.77;;
27163;SDS011;14685;50.618;7.024;2022-08-18T00:43:50;14.65;;;13.07;;
27163;SDS011;14685;50.618;7.024;2022-08-18T00:46:19;14.50;;;13.13;;
27163;SDS011;14685;50.618;7.024;2022-08-18T00:49:04;15.20;;;13.60;;
27163;SDS011;14685;50.618;7.024;2022-08-18T00:51:39;13.65;;;12.23;;
27163;SDS011;14685;50.618;7.024;2022-08-18T00:56:42;14.93;;;13.43;;
27163;SDS011;14685;50.618;7.024;2022-08-18T01:02:08;15.13;;;13.55;;
27163;SDS011;14685;50.618;7.024;2022-08-18T01:04:45;16.15;;;14.48;;
27163;SDS011;14685;50.618;7.024;2022-08-18T01:07:17;16.13;;;14.57;;
27163;SDS011;14685;50.618;7.024;2022-08-18T01:09:48;17.40;;;15.38;;
27163;SDS011;14685;50.618;7.024;2022-08-18T01:12:17;17.17;;;15.30;;
27163;SDS011;14685;50.618;7.024;2022-08-18T01:15:04;19.40;;;14.00;;
27163;SDS011;14685;50.618;7.024;2022-08-18T01:17:32;16.17;;;13.88;;
27163;SDS011;14685;50.618;7.024;2022-08-18T01:20:20;13.45;;;12.15;;
27163;SDS011;14685;50.618;7.024;2022-08-18T01:23:16;13.27;;;12.07;;
27163;SDS011;14685;50.618;7.024;2022-08-18T01:25:47;15.15;;;13.68;;
27163;SDS011;14685;50.618;7.024;2022-08-18T01:28:32;16.00;;;14.30;;
27163;SDS011;14685;50.618;7.024;2022-08-18T01:31:01;16.08;;;13.85;;
27163;SDS011;14685;50.618;7.024;2022-08-18T01:33:30;19.10;;;16.02;;
27163;SDS011;14685;50.618;7.024;2022-08-18T01:36:01;16.90;;;14.90;;
27163;SDS011;14685;50.618;7.024;2022-08-18T01:38:45;16.00;;;14.50;;
27163;SDS011;14685;50.618;7.024;2022-08-18T01:41:13;16.63;;;14.85;;
27163;SDS011;14685;50.618;7.024;2022-08-18T01:43:53;15.82;;;14.32;;
27163;SDS011;14685;50.618;7.024;2022-08-18T01:46:20;16.15;;;14.48;;
27163;SDS011;14685;50.618;7.024;2022-08-18T01:48:49;15.30;;;13.82;;
27163;SDS011;14685;50.618;7.024;2022-08-18T01:51:16;16.35;;;14.75;;
27163;SDS011;14685;50.618;7.024;2022-08-18T01:54:04;15.50;;;13.98;;
27163;SDS011;14685;50.618;7.024;2022-08-18T01:56:31;16.58;;;14.93;;
27163;SDS011;14685;50.618;7.024;2022-08-18T01:58:58;16.42;;;14.80;;
27163;SDS011;14685;50.618;7.024;2022-08-18T02:01:24;15.38;;;13.88;;
27163;SDS011;14685;50.618;7.024;2022-08-18T02:04:02;16.27;;;14.55;;
27163;SDS011;14685;50.618;7.024;2022-08-18T02:06:52;15.50;;;13.93;;
27163;SDS011;14685;50.618;7.024;2022-08-18T02:09:21;14.95;;;13.45;;
27163;SDS011;14685;50.618;7.024;2022-08-18T02:11:49;17.10;;;15.27;;
27163;SDS011;14685;50.618;7.024;2022-08-18T02:14:21;16.20;;;14.68;;
27163;SDS011;14685;50.618;7.024;2022-08-18T02:16:54;18.35;;;16.65;;
27163;SDS011;14685;50.618;7.024;2022-08-18T02:19:31;16.58;;;14.77;;
27163;SDS011;14685;50.618;7.024;2022-08-18T02:22:04;17.25;;;15.55;;
27163;SDS011;14685;50.618;7.024;2022-08-18T02:24:32;16.98;;;15.35;;
27163;SDS011;14685;50.618;7.024;2022-08-18T02:27:00;16.52;;;14.73;;
27163;SDS011;14685;50.618;7.024;2022-08-18T02:29:27;16.95;;;14.07;;
27163;SDS011;14685;50.618;7.024;2022-08-18T02:31:53;16.52;;;14.90;;
27163;SDS011;14685;50.618;7.024;2022-08-18T02:34:20;16.88;;;15.05;;
27163;SDS011;14685;50.618;7.024;2022-08-18T02:36:47;16.73;;;14.85;;
27163;SDS011;14685;50.618;7.024;2022-08-18T02:39:14;15.52;;;14.02;;
27163;SDS011;14685;50.618;7.024;2022-08-18T02:41:41;16.98;;;15.25;;
27163;SDS011;14685;50.618;7.024;2022-08-18T02:44:08;17.63;;;15.88;;
27163;SDS011;14685;50.618;7.024;2022-08-18T02:46:35;18.10;;;16.23;;
27163;SDS011;14685;50.618;7.024;2022-08-18T02:49:04;16.38;;;14.68;;
27163;SDS011;14685;50.618;7.024;2022-08-18T02:51:33;18.75;;;16.70;;
27163;SDS011;14685;50.618;7.024;2022-08-18T02:54:00;16.30;;;14.75;;
27163;SDS011;14685;50.618;7.024;2022-08-18T02:56:28;17.65;;;15.95;;
27163;SDS011;14685;50.618;7.024;2022-08-18T02:59:07;16.70;;;15.00;;
27163;SDS011;14685;50.618;7.024;2022-08-18T03:01:37;20.55;;;17.73;;
27163;SDS011;14685;50.618;7.024;2022-08-18T03:04:07;18.08;;;16.38;;
27163;SDS011;14685;50.618;7.024;2022-08-18T03:06:37;17.02;;;15.25;;
27163;SDS011;14685;50.618;7.024;2022-08-18T03:09:05;19.00;;;17.08;;
27163;SDS011;14685;50.618;7.024;2022-08-18T03:11:34;19.35;;;17.35;;
27163;SDS011;14685;50.618;7.024;2022-08-18T03:14:02;18.70;;;16.55;;
27163;SDS011;14685;50.618;7.024;2022-08-18T03:16:30;20.77;;;18.25;;
27163;SDS011;14685;50.618;7.024;2022-08-18T03:19:01;20.13;;;17.98;;
27163;SDS011;14685;50.618;7.024;2022-08-18T03:21:30;20.23;;;18.10;;
27163;SDS011;14685;50.618;7.024;2022-08-18T03:24:01;20.48;;;18.27;;
27163;SDS011;14685;50.618;7.024;2022-08-18T03:26:34;18.30;;;16.40;;
27163;SDS011;14685;50.618;7.024;2022-08-18T03:29:05;20.77;;;18.65;;
27163;SDS011;14685;50.618;7.024;2022-08-18T03:31:31;20.00;;;17.73;;
27163;SDS011;14685;50.618;7.024;2022-08-18T03:33:58;21.30;;;19.05;;
27163;SDS011;14685;50.618;7.024;2022-08-18T03:36:28;22.05;;;19.73;;
27163;SDS011;14685;50.618;7.024;2022-08-18T03:39:00;20.42;;;18.40;;
27163;SDS011;14685;50.618;7.024;2022-08-18T03:41:31;20.42;;;18.42;;
27163;SDS011;14685;50.618;7.024;2022-08-18T03:44:19;21.50;;;19.23;;
27163;SDS011;14685;50.618;7.024;2022-08-18T03:46:48;22.77;;;19.67;;
27163;SDS011;14685;50.618;7.024;2022-08-18T03:49:15;22.33;;;19.00;;
27163;SDS011;14685;50.618;7.024;2022-08-18T03:51:43;24.65;;;22.15;;
27163;SDS011;14685;50.618;7.024;2022-08-18T03:54:12;23.85;;;21.35;;
27163;SDS011;14685;50.618;7.024;2022-08-18T03:56:41;22.52;;;19.60;;
27163;SDS011;14685;50.618;7.024;2022-08-18T03:59:12;20.70;;;18.55;;
27163;SDS011;14685;50.618;7.024;2022-08-18T04:01:43;22.27;;;19.77;;
27163;SDS011;14685;50.618;7.024;2022-08-18T04:04:13;24.75;;;22.13;;
27163;SDS011;14685;50.618;7.024;2022-08-18T04:06:43;25.02;;;22.33;;
27163;SDS011;14685;50.618;7.024;2022-08-18T04:09:15;26.40;;;22.00;;
27163;SDS011;14685;50.618;7.024;2022-08-18T04:11:43;23.15;;;20.70;;
27163;SDS011;14685;50.618;7.024;2022-08-18T04:14:11;24.90;;;22.13;;
27163;SDS011;14685;50.618;7.024;2022-08-18T04:16:40;23.98;;;21.48;;
27163;SDS011;14685;50.618;7.024;2022-08-18T04:19:08;23.45;;;20.63;;
27163;SDS011;14685;50.618;7.024;2022-08-18T04:21:39;26.55;;;23.05;;
27163;SDS011;14685;50.618;7.024;2022-08-18T04:24:08;25.65;;;22.67;;
27163;SDS011;14685;50.618;7.024;2022-08-18T04:26:38;22.67;;;19.75;;
27163;SDS011;14685;50.618;7.024;2022-08-18T04:29:08;25.20;;;21.17;;
27163;SDS011;14685;50.618;7.024;2022-08-18T04:31:36;26.42;;;23.05;;
27163;SDS011;14685;50.618;7.024;2022-08-18T04:34:03;22.15;;;19.88;;
27163;SDS011;14685;50.618;7.024;2022-08-18T04:36:31;26.70;;;23.83;;
27163;SDS011;14685;50.618;7.024;2022-08-18T04:39:00;29.10;;;25.30;;
27163;SDS011;14685;50.618;7.024;2022-08-18T04:41:28;27.83;;;24.63;;
27163;SDS011;14685;50.618;7.024;2022-08-18T04:43:56;27.63;;;24.73;;
27163;SDS011;14685;50.618;7.024;2022-08-18T04:46:24;29.73;;;25.85;;
27163;SDS011;14685;50.618;7.024;2022-08-18T04:48:52;27.17;;;23.10;;
27163;SDS011;14685;50.618;7.024;2022-08-18T04:51:26;26.35;;;23.42;;
27163;SDS011;14685;50.618;7.024;2022-08-18T04:54:14;29.38;;;24.77;;
27163;SDS011;14685;50.618;7.024;2022-08-18T04:56:41;26.63;;;23.75;;
27163;SDS011;14685;50.618;7.024;2022-08-18T04:59:10;29.63;;;25.85;;
27163;SDS011;14685;50.618;7.024;2022-08-18T05:01:39;30.73;;;27.48;;
27163;SDS011;14685;50.618;7.024;2022-08-18T05:04:10;28.90;;;23.65;;
27163;SDS011;14685;50.618;7.024;2022-08-18T05:06:39;27.75;;;24.08;;
27163;SDS011;14685;50.618;7.024;2022-08-18T05:09:09;28.17;;;25.10;;
27163;SDS011;14685;50.618;7.024;2022-08-18T05:11:41;25.60;;;22.67;;
27163;SDS011;14685;50.618;7.024;2022-08-18T05:14:09;28.38;;;24.30;;
27163;SDS011;14685;50.618;7.024;2022-08-18T05:16:37;27.10;;;23.83;;
27163;SDS011;14685;50.618;7.024;2022-08-18T05:19:15;26.73;;;23.83;;
27163;SDS011;14685;50.618;7.024;2022-08-18T05:21:56;27.35;;;22.05;;
27163;SDS011;14685;50.618;7.024;2022-08-18T05:24:26;26.45;;;22.92;;
27163;SDS011;14685;50.618;7.024;2022-08-18T05:27:03;24.20;;;21.70;;
27163;SDS011;14685;50.618;7.024;2022-08-18T05:29:30;26.05;;;23.05;;
27163;SDS011;14685;50.618;7.024;2022-08-18T05:32:11;22.83;;;20.08;;
27163;SDS011;14685;50.618;7.024;2022-08-18T05:35:06;24.00;;;21.05;;
27163;SDS011;14685;50.618;7.024;2022-08-18T05:38:16;23.42;;;19.35;;
27163;SDS011;14685;50.618;7.024;2022-08-18T05:40:37;23.70;;;21.30;;
27163;SDS011;14685;50.618;7.024;2022-08-18T05:43:04;21.95;;;19.75;;
27163;SDS011;14685;50.618;7.024;2022-08-18T05:45:33;23.58;;;21.08;;
27163;SDS011;14685;50.618;7.024;2022-08-18T05:48:00;22.50;;;20.23;;
27163;SDS011;14685;50.618;7.024;2022-08-18T05:50:28;23.15;;;20.75;;
27163;SDS011;14685;50.618;7.024;2022-08-18T05:53:02;25.27;;;22.55;;
27163;SDS011;14685;50.618;7.024;2022-08-18T05:55:59;21.58;;;18.77;;
27163;SDS011;14685;50.618;7.024;2022-08-18T05:58:50;27.65;;;22.83;;
27163;SDS011;14685;50.618;7.024;2022-08-18T06:01:21;27.08;;;23.48;;
27163;SDS011;14685;50.618;7.024;2022-08-18T06:07:12;24.40;;;21.75;;
27163;SDS011;14685;50.618;7.024;2022-08-18T06:10:01;25.55;;;22.35;;
27163;SDS011;14685;50.618;7.024;2022-08-18T06:12:32;24.80;;;22.17;;
27163;SDS011;14685;50.618;7.024;2022-08-18T06:15:06;25.00;;;21.95;;
27163;SDS011;14685;50.618;7.024;2022-08-18T06:20:49;31.23;;;24.23;;
27163;SDS011;14685;50.618;7.024;2022-08-18T06:31:49;31.95;;;27.27;;
27163;SDS011;14685;50.618;7.024;2022-08-18T06:34:41;36.47;;;31.38;;
27163;SDS011;14685;50.618;7.024;2022-08-18T06:37:29;31.98;;;27.17;;
27163;SDS011;14685;50.618;7.024;2022-08-18T06:40:25;35.42;;;29.35;;
27163;SDS011;14685;50.618;7.024;2022-08-18T06:42:52;35.75;;;30.08;;
27163;SDS011;14685;50.618;7.024;2022-08-18T06:45:21;36.75;;;31.38;;
27163;SDS011;14685;50.618;7.024;2022-08-18T06:50:51;43.55;;;33.92;;
27163;SDS011;14685;50.618;7.024;2022-08-18T06:53:21;41.63;;;33.72;;
27163;SDS011;14685;50.618;7.024;2022-08-18T06:56:25;40.70;;;31.65;;
27163;SDS011;14685;50.618;7.024;2022-08-18T07:01:41;48.65;;;37.58;;
27163;SDS011;14685;50.618;7.024;2022-08-18T07:04:09;51.05;;;37.90;;
27163;SDS011;14685;50.618;7.024;2022-08-18T07:06:54;55.50;;;39.55;;
27163;SDS011;14685;50.618;7.024;2022-08-18T07:09:22;48.17;;;36.50;;
27163;SDS011;14685;50.618;7.024;2022-08-18T07:11:58;51.90;;;37.17;;
27163;SDS011;14685;50.618;7.024;2022-08-18T07:14:49;55.65;;;40.72;;
27163;SDS011;14685;50.618;7.024;2022-08-18T07:17:21;60.60;;;41.53;;
27163;SDS011;14685;50.618;7.024;2022-08-18T07:20:23;53.90;;;37.90;;
27163;SDS011;14685;50.618;7.024;2022-08-18T07:22:58;59.72;;;42.08;;
27163;SDS011;14685;50.618;7.024;2022-08-18T07:25:37;59.95;;;41.47;;
27163;SDS011;14685;50.618;7.024;2022-08-18T07:30:52;60.72;;;41.65;;
27163;SDS011;14685;50.618;7.024;2022-08-18T07:33:44;66.53;;;44.42;;
27163;SDS011;14685;50.618;7.024;2022-08-18T07:36:17;65.70;;;44.08;;
27163;SDS011;14685;50.618;7.024;2022-08-18T07:38:54;75.88;;;47.15;;
27163;SDS011;14685;50.618;7.024;2022-08-18T07:41:41;73.90;;;49.47;;
27163;SDS011;14685;50.618;7.024;2022-08-18T07:44:16;72.65;;;46.05;;
27163;SDS011;14685;50.618;7.024;2022-08-18T07:46:51;70.10;;;47.75;;
27163;SDS011;14685;50.618;7.024;2022-08-18T07:49:32;69.35;;;45.08;;
27163;SDS011;14685;50.618;7.024;2022-08-18T07:52:05;64.40;;;41.63;;
27163;SDS011;14685;50.618;7.024;2022-08-18T08:03:30;63.00;;;41.25;;
27163;SDS011;14685;50.618;7.024;2022-08-18T08:11:50;60.13;;;39.83;;
27163;SDS011;14685;50.618;7.024;2022-08-18T08:14:47;68.78;;;44.83;;
27163;SDS011;14685;50.618;7.024;2022-08-18T08:25:28;53.92;;;36.67;;
27163;SDS011;14685;50.618;7.024;2022-08-18T08:37:17;58.38;;;38.85;;
27163;SDS011;14685;50.618;7.024;2022-08-18T08:40:17;56.63;;;37.10;;
27163;SDS011;14685;50.618;7.024;2022-08-18T08:50:56;50.25;;;33.30;;
27163;SDS011;14685;50.618;7.024;2022-08-18T08:53:44;56.38;;;37.55;;
27163;SDS011;14685;50.618;7.024;2022-08-18T08:56:16;54.10;;;37.17;;
27163;SDS011;14685;50.618;7.024;2022-08-18T08:58:53;51.88;;;34.10;;
27163;SDS011;14685;50.618;7.024;2022-08-18T09:01:32;54.33;;;34.72;;
27163;SDS011;14685;50.618;7.024;2022-08-18T09:05:05;45.92;;;32.05;;
27163;SDS011;14685;50.618;7.024;2022-08-18T09:07:44;48.75;;;33.53;;
27163;SDS011;14685;50.618;7.024;2022-08-18T09:15:52;57.30;;;36.97;;
27163;SDS011;14685;50.618;7.024;2022-08-18T09:18:58;49.80;;;34.28;;
27163;SDS011;14685;50.618;7.024;2022-08-18T09:30:44;53.90;;;35.83;;
27163;SDS011;14685;50.618;7.024;2022-08-18T09:38:56;56.08;;;37.90;;
27163;SDS011;14685;50.618;7.024;2022-08-18T09:41:58;55.78;;;38.20;;
27163;SDS011;14685;50.618;7.024;2022-08-18T09:57:41;50.55;;;34.45;;
27163;SDS011;14685;50.618;7.024;2022-08-18T10:07:45;48.75;;;33.60;;
27163;SDS011;14685;50.618;7.024;2022-08-18T10:19:53;50.50;;;34.40;;
27163;SDS011;14685;50.618;7.024;2022-08-18T10:22:52;52.03;;;35.80;;
27163;SDS011;14685;50.618;7.024;2022-08-18T10:25:31;44.20;;;30.88;;
27163;SDS011;14685;50.618;7.024;2022-08-18T10:28:01;50.90;;;36.60;;
27163;SDS011;14685;50.618;7.024;2022-08-18T10:36:38;53.83;;;36.53;;
27163;SDS011;14685;50.618;7.024;2022-08-18T10:39:18;55.80;;;36.72;;
27163;SDS011;14685;50.618;7.024;2022-08-18T10:42:03;59.28;;;40.83;;
27163;SDS011;14685;50.618;7.024;2022-08-18T10:44:46;55.30;;;38.67;;
27163;SDS011;14685;50.618;7.024;2022-08-18T10:47:21;57.75;;;37.42;;
27163;SDS011;14685;50.618;7.024;2022-08-18T10:49:59;57.75;;;40.28;;
27163;SDS011;14685;50.618;7.024;2022-08-18T10:52:36;60.40;;;41.23;;
27163;SDS011;14685;50.618;7.024;2022-08-18T11:01:23;59.22;;;41.63;;
27163;SDS011;14685;50.618;7.024;2022-08-18T11:04:05;55.22;;;39.40;;
27163;SDS011;14685;50.618;7.024;2022-08-18T11:06:43;50.60;;;37.08;;
27163;SDS011;14685;50.618;7.024;2022-08-18T11:09:22;50.67;;;38.47;;
27163;SDS011;14685;50.618;7.024;2022-08-18T11:11:53;55.08;;;40.08;;
27163;SDS011;14685;50.618;7.024;2022-08-18T11:17:19;55.20;;;42.15;;
27163;SDS011;14685;50.618;7.024;2022-08-18T11:19:51;61.88;;;44.40;;
27163;SDS011;14685;50.618;7.024;2022-08-18T11:22:27;58.17;;;42.67;;
27163;SDS011;14685;50.618;7.024;2022-08-18T11:24:58;54.40;;;41.22;;
27163;SDS011;14685;50.618;7.024;2022-08-18T11:27:30;61.15;;;44.25;;
27163;SDS011;14685;50.618;7.024;2022-08-18T11:30:02;59.92;;;44.13;;
27163;SDS011;14685;50.618;7.024;2022-08-18T11:32:32;51.20;;;38.25;;
27163;SDS011;14685;50.618;7.024;2022-08-18T11:37:46;54.60;;;40.75;;
27163;SDS011;14685;50.618;7.024;2022-08-18T11:40:36;44.50;;;35.38;;
27163;SDS011;14685;50.618;7.024;2022-08-18T11:43:26;52.47;;;41.17;;
27163;SDS011;14685;50.618;7.024;2022-08-18T11:46:21;56.17;;;41.80;;
27163;SDS011;14685;50.618;7.024;2022-08-18T11:48:56;56.20;;;42.20;;
27163;SDS011;14685;50.618;7.024;2022-08-18T11:51:28;53.58;;;41.00;;
27163;SDS011;14685;50.618;7.024;2022-08-18T11:54:01;52.20;;;39.55;;
27163;SDS011;14685;50.618;7.024;2022-08-18T11:56:44;55.28;;;40.17;;
27163;SDS011;14685;50.618;7.024;2022-08-18T12:02:14;55.10;;;42.13;;
27163;SDS011;14685;50.618;7.024;2022-08-18T12:04:43;51.78;;;39.40;;
27163;SDS011;14685;50.618;7.024;2022-08-18T12:07:16;58.72;;;43.63;;
27163;SDS011;14685;50.618;7.024;2022-08-18T12:12:54;56.05;;;42.42;;
27163;SDS011;14685;50.618;7.024;2022-08-18T12:15:27;60.28;;;43.47;;
27163;SDS011;14685;50.618;7.024;2022-08-18T12:18:12;59.10;;;44.08;;
27163;SDS011;14685;50.618;7.024;2022-08-18T12:20:51;50.70;;;40.20;;
27163;SDS011;14685;50.618;7.024;2022-08-18T12:23:18;53.05;;;39.60;;
27163;SDS011;14685;50.618;7.024;2022-08-18T12:25:46;51.10;;;39.90;;
27163;SDS011;14685;50.618;7.024;2022-08-18T12:28:17;50.22;;;38.15;;
27163;SDS011;14685;50.618;7.024;2022-08-18T12:30:47;51.78;;;40.65;;
27163;SDS011;14685;50.618;7.024;2022-08-18T12:33:22;47.03;;;37.35;;
27163;SDS011;14685;50.618;7.024;2022-08-18T12:36:00;47.97;;;36.33;;
27163;SDS011;14685;50.618;7.024;2022-08-18T12:38:30;51.53;;;38.00;;
27163;SDS011;14685;50.618;7.024;2022-08-18T12:41:02;48.35;;;38.30;;
27163;SDS011;14685;50.618;7.024;2022-08-18T12:43:30;53.35;;;39.47;;
27163;SDS011;14685;50.618;7.024;2022-08-18T12:45:59;47.55;;;36.50;;
27163;SDS011;14685;50.618;7.024;2022-08-18T12:48:26;48.55;;;38.40;;
27163;SDS011;14685;50.618;7.024;2022-08-18T12:50:54;50.67;;;37.88;;
27163;SDS011;14685;50.618;7.024;2022-08-18T12:53:25;44.72;;;35.30;;
27163;SDS011;14685;50.618;7.024;2022-08-18T12:58:44;41.20;;;34.88;;
27163;SDS011;14685;50.618;7.024;2022-08-18T13:01:12;41.63;;;35.40;;
27163;SDS011;14685;50.618;7.024;2022-08-18T13:03:59;41.83;;;33.65;;
27163;SDS011;14685;50.618;7.024;2022-08-18T13:06:38;38.88;;;33.03;;
27163;SDS011;14685;50.618;7.024;2022-08-18T13:09:24;41.45;;;34.42;;
27163;SDS011;14685;50.618;7.024;2022-08-18T13:12:12;41.03;;;33.47;;
27163;SDS011;14685;50.618;7.024;2022-08-18T13:14:41;42.97;;;36.15;;
27163;SDS011;14685;50.618;7.024;2022-08-18T13:17:10;43.03;;;35.40;;
27163;SDS011;14685;50.618;7.024;2022-08-18T13:19:57;47.58;;;37.83;;
27163;SDS011;14685;50.618;7.024;2022-08-18T13:22:25;46.97;;;39.15;;
27163;SDS011;14685;50.618;7.024;2022-08-18T13:24:58;44.53;;;35.33;;
27163;SDS011;14685;50.618;7.024;2022-08-18T13:27:26;52.00;;;40.70;;
27163;SDS011;14685;50.618;7.024;2022-08-18T13:30:00;49.08;;;37.28;;
27163;SDS011;14685;50.618;7.024;2022-08-18T13:32:51;47.00;;;38.22;;
27163;SDS011;14685;50.618;7.024;2022-08-18T13:35:25;48.55;;;37.90;;
27163;SDS011;14685;50.618;7.024;2022-08-18T13:38:03;46.60;;;36.47;;
27163;SDS011;14685;50.618;7.024;2022-08-18T13:40:44;51.03;;;37.92;;
27163;SDS011;14685;50.618;7.024;2022-08-18T13:43:16;47.33;;;37.30;;
27163;SDS011;14685;50.618;7.024;2022-08-18T13:45:48;49.40;;;38.47;;
27163;SDS011;14685;50.618;7.024;2022-08-18T13:48:21;46.60;;;36.70;;
27163;SDS011;14685;50.618;7.024;2022-08-18T13:50:49;51.78;;;39.05;;
27163;SDS011;14685;50.618;7.024;2022-08-18T13:53:18;49.00;;;40.10;;
27163;SDS011;14685;50.618;7.024;2022-08-18T13:55:47;50.95;;;40.10;;
27163;SDS011;14685;50.618;7.024;2022-08-18T13:58:14;49.53;;;37.80;;
27163;SDS011;14685;50.618;7.024;2022-08-18T14:00:46;44.88;;;37.33;;
27163;SDS011;14685;50.618;7.024;2022-08-18T14:06:13;44.85;;;38.70;;
27163;SDS011;14685;50.618;7.024;2022-08-18T14:08:47;43.67;;;35.47;;
27163;SDS011;14685;50.618;7.024;2022-08-18T14:11:15;42.40;;;37.78;;
27163;SDS011;14685;50.618;7.024;2022-08-18T14:13:43;43.22;;;36.92;;
27163;SDS011;14685;50.618;7.024;2022-08-18T14:16:10;46.63;;;36.08;;
27163;SDS011;14685;50.618;7.024;2022-08-18T14:18:44;40.17;;;35.42;;
27163;SDS011;14685;50.618;7.024;2022-08-18T14:21:35;39.60;;;33.78;;
27163;SDS011;14685;50.618;7.024;2022-08-18T14:24:28;42.92;;;36.35;;
27163;SDS011;14685;50.618;7.024;2022-08-18T14:27:18;41.08;;;34.42;;
27163;SDS011;14685;50.618;7.024;2022-08-18T14:29:51;37.00;;;32.47;;
27163;SDS011;14685;50.618;7.024;2022-08-18T14:32:20;38.80;;;33.25;;
27163;SDS011;14685;50.618;7.024;2022-08-18T14:34:55;36.90;;;32.80;;
27163;SDS011;14685;50.618;7.024;2022-08-18T14:37:26;37.58;;;33.38;;
27163;SDS011;14685;50.618;7.024;2022-08-18T14:39:54;37.00;;;33.00;;
27163;SDS011;14685;50.618;7.024;2022-08-18T14:42:21;38.42;;;34.25;;
27163;SDS011;14685;50.618;7.024;2022-08-18T14:45:08;36.70;;;32.78;;
27163;SDS011;14685;50.618;7.024;2022-08-18T14:47:56;36.17;;;32.22;;
27163;SDS011;14685;50.618;7.024;2022-08-18T14:50:24;33.53;;;29.75;;
27163;SDS011;14685;50.618;7.024;2022-08-18T14:52:51;33.38;;;29.77;;
27163;SDS011;14685;50.618;7.024;2022-08-18T14:55:19;32.83;;;29.50;;
27163;SDS011;14685;50.618;7.024;2022-08-18T14:57:47;30.83;;;27.63;;
27163;SDS011;14685;50.618;7.024;2022-08-18T15:00:16;32.60;;;29.02;;
27163;SDS011;14685;50.618;7.024;2022-08-18T15:02:49;32.58;;;29.23;;
27163;SDS011;14685;50.618;7.024;2022-08-18T15:05:16;31.75;;;28.55;;
27163;SDS011;14685;50.618;7.024;2022-08-18T15:07:49;30.08;;;26.75;;
27163;SDS011;14685;50.618;7.024;2022-08-18T15:10:16;29.35;;;26.17;;
27163;SDS011;14685;50.618;7.024;2022-08-18T15:12:48;27.45;;;24.73;;
27163;SDS011;14685;50.618;7.024;2022-08-18T15:15:15;30.27;;;26.10;;
27163;SDS011;14685;50.618;7.024;2022-08-18T15:17:43;35.03;;;31.25;;
27163;SDS011;14685;50.618;7.024;2022-08-18T15:20:18;29.85;;;27.00;;
27163;SDS011;14685;50.618;7.024;2022-08-18T15:22:54;28.67;;;25.98;;
27163;SDS011;14685;50.618;7.024;2022-08-18T15:25:48;31.63;;;28.55;;
27163;SDS011;14685;50.618;7.024;2022-08-18T15:28:18;29.40;;;26.60;;
27163;SDS011;14685;50.618;7.024;2022-08-18T15:30:50;32.78;;;29.55;;
27163;SDS011;14685;50.618;7.024;2022-08-18T15:33:38;32.95;;;29.85;;
27163;SDS011;14685;50.618;7.024;2022-08-18T15:36:04;29.75;;;26.95;;
27163;SDS011;14685;50.618;7.024;2022-08-18T15:38:35;29.10;;;26.35;;
27163;SDS011;14685;50.618;7.024;2022-08-18T15:41:02;28.50;;;25.75;;
27163;SDS011;14685;50.618;7.024;2022-08-18T15:43:34;27.95;;;25.17;;
27163;SDS011;14685;50.618;7.024;2022-08-18T15:46:11;25.17;;;22.92;;
27163;SDS011;14685;50.618;7.024;2022-08-18T15:48:42;24.65;;;22.33;;
27163;SDS011;14685;50.618;7.024;2022-08-18T15:51:09;26.02;;;23.30;;
27163;SDS011;14685;50.618;7.024;2022-08-18T15:53:37;23.02;;;20.95;;
27163;SDS011;14685;50.618;7.024;2022-08-18T15:56:20;22.23;;;20.27;;
27163;SDS011;14685;50.618;7.024;2022-08-18T15:58:51;19.70;;;17.63;;
27163;SDS011;14685;50.618;7.024;2022-08-18T16:01:19;19.55;;;17.48;;
27163;SDS011;14685;50.618;7.024;2022-08-18T16:03:57;17.42;;;15.55;;
27163;SDS011;14685;50.618;7.024;2022-08-18T16:06:29;19.80;;;17.90;;
27163;SDS011;14685;50.618;7.024;2022-08-18T16:08:57;17.70;;;16.08;;
27163;SDS011;14685;50.618;7.024;2022-08-18T16:11:25;16.85;;;15.20;;
27163;SDS011;14685;50.618;7.024;2022-08-18T16:13:54;16.65;;;15.05;;
27163;SDS011;14685;50.618;7.024;2022-08-18T16:16:24;16.65;;;15.05;;
27163;SDS011;14685;50.618;7.024;2022-08-18T16:19:01;12.73;;;11.70;;
27163;SDS011;14685;50.618;7.024;2022-08-18T16:21:29;11.85;;;10.65;;
27163;SDS011;14685;50.618;7.024;2022-08-18T16:23:56;13.18;;;11.77;;
27163;SDS011;14685;50.618;7.024;2022-08-18T16:26:23;12.18;;;10.98;;
27163;SDS011;14685;50.618;7.024;2022-08-18T16:28:51;12.40;;;11.18;;
27163;SDS011;14685;50.618;7.024;2022-08-18T16:31:19;10.68;;;9.63;;
27163;SDS011;14685;50.618;7.024;2022-08-18T16:33:53;11.02;;;9.38;;
27163;SDS011;14685;50.618;7.024;2022-08-18T16:36:22;11.38;;;9.70;;
27163;SDS011;14685;50.618;7.024;2022-08-18T16:38:53;10.15;;;8.20;;
27163;SDS011;14685;50.618;7.024;2022-08-18T16:41:23;8.20;;;7.40;;
27163;SDS011;14685;50.618;7.024;2022-08-18T16:43:52;9.27;;;8.27;;
27163;SDS011;14685;50.618;7.024;2022-08-18T16:46:21;10.98;;;9.95;;
27163;SDS011;14685;50.618;7.024;2022-08-18T16:48:51;10.57;;;9.45;;
27163;SDS011;14685;50.618;7.024;2022-08-18T16:51:21;11.45;;;10.35;;
27163;SDS011;14685;50.618;7.024;2022-08-18T16:53:50;9.55;;;8.48;;
27163;SDS011;14685;50.618;7.024;2022-08-18T16:56:21;19.25;;;15.18;;
27163;SDS011;14685;50.618;7.024;2022-08-18T16:58:50;10.10;;;8.93;;
27163;SDS011;14685;50.618;7.024;2022-08-18T17:01:36;14.10;;;12.73;;
27163;SDS011;14685;50.618;7.024;2022-08-18T17:04:23;10.85;;;9.32;;
27163;SDS011;14685;50.618;7.024;2022-08-18T17:06:54;13.95;;;12.57;;
27163;SDS011;14685;50.618;7.024;2022-08-18T17:09:21;15.10;;;11.45;;
27163;SDS011;14685;50.618;7.024;2022-08-18T17:11:49;9.98;;;9.00;;
27163;SDS011;14685;50.618;7.024;2022-08-18T17:14:19;11.00;;;9.95;;
27163;SDS011;14685;50.618;7.024;2022-08-18T17:16:49;11.02;;;9.93;;
27163;SDS011;14685;50.618;7.024;2022-08-18T17:19:25;13.43;;;10.15;;
27163;SDS011;14685;50.618;7.024;2022-08-18T17:21:53;12.47;;;11.13;;
27163;SDS011;14685;50.618;7.024;2022-08-18T17:24:20;10.73;;;9.73;;
27163;SDS011;14685;50.618;7.024;2022-08-18T17:32:43;13.70;;;12.30;;
27163;SDS011;14685;50.618;7.024;2022-08-18T17:38:00;13.43;;;10.68;;
27163;SDS011;14685;50.618;7.024;2022-08-18T17:40:48;12.03;;;10.87;;